青森 の空港の天気 - METARとTAF

青森空港 ( RJSA / AOJ ) - 青森県青森市
飛行場実況気象(Metar)
観測時間04/25 21:44 JST (04/25 12:44 UTC)
風向・風速南西 5m/s
視程3000m
天気現象雷雨
少しの雲 雲底高度 460m
全天の4割程度の雲 雲底高度 910m
少しの雲 雲底高度 910m
全天の8割程度の雲 雲底高度 1520m
気温11℃
湿度94%
気圧1017hPa
METARRJSA 251244Z 23009KT 3000 TSRA FEW015 SCT030 FEW030CB BKN050 11/10 Q1017 RMK 1CU015 4CU030 2CB030 6CU050 A3005 FBL TS OHD MOV NE
過去の天気等 Google飛行場航空写真 Wunderground天気予報

過去48時間のMETAR

飛行場予報(TAF)
発表時間: 4/25 20:05 JST (4/25 11:05 UTC)
予報対象時間: 25日21時 JST ~ 27日3時 JST
風向・風速南南西 7m/s
視程10km以上
少しの雲 雲底高度 300m
全天の4割程度の雲 雲底高度 610m
全天の8割程度の雲 雲底高度 910m
25日21時 JST ~ 25日24時 JST に一時的に
視程4,000m
天気現象雷雨 もや
少しの雲 雲底高度 300m
全天の8割程度の雲 雲底高度 610m
少しの積乱雲 雲底高度 610m
全天の8割程度の雲 雲底高度 910m
26日9時 JST ~ 26日12時 JST に徐々に
風向・風速西 4m/s
26日9時 JST ~ 26日15時 JST に一時的に
視程3,000m
天気現象しゅう雨 もや
少しの雲 雲底高度 90m
全天の8割程度の雲 雲底高度 180m
全天の8割程度の雲 雲底高度 460m
TAF RJSA 251105Z 2512/2618 21013KT 9999 FEW010 SCT020 BKN030
TEMPO 2512/2515 4000 TSRA BR FEW010 BKN020 FEW020CB BKN030
BECMG 2600/2603 27008KT
TEMPO 2600/2606 3000 SHRA BR FEW003 BKN006 BKN015
日本の空港のMETAR・TAFへのリンク

RJTT 東京国際空港
RJAA 新東京国際空港
RJBB 関西国際空港
RJOO 大阪空港
RJGG 中部国際空港
RJCC 新千歳空港
RJFF 福岡空港
ROAH 那覇空港


RJEC 旭川空港
RJCH 函館空港
RJCK 釧路空港
RJCM 女満別空港
RJCB 帯広空港
RJSA 青森空港
RJSS 仙台空港
RJSK 秋田空港
RJSF 福島空港
RJAH 茨城空港
RJSN 新潟空港
RJNT 富山空港
RJNK 小松飛行場
RJNS 静岡空港
RJOH 美保飛行場
RJOC 出雲空港
RJOB 岡山空港
RJOA 広島空港
RJOI 岩国飛行場
RJOT 高松空港
RJOM 松山空港
RJOK 高知空港
RJFR 北九州空港
RJFT 熊本空港
RJFU 長崎空港
RJFS 佐賀空港
RJFO 大分空港
RJFM 宮崎空港
RJFK 鹿児島空港
ROIG 石垣島空港
RJTY 横田飛行場
ROTM 普天間飛行場
RODN 嘉手納飛行場